Time;durP1;ratioP1;P1;durP2;ratioP2;P2;SDS_P1;SDS_P2;PMS_P1;PMS_P2;Temp;Humidity;BMP_temperature;BMP_pressure;BME280_temperature;BME280_humidity;BME280_pressure;Samples;Min_cycle;Max_cycle;Signal;HPM_P1;HPM_P2
2021/09/29 00:00:46;;;;;;;11.50;6.20;;;13.90;99.90;;;;;;5063755;28;25136;-60
2021/09/29 00:03:11;;;;;;;12.52;6.72;;;14.00;99.90;;;;;;5026086;28;25053;-60
2021/09/29 00:05:39;;;;;;;12.32;6.28;;;13.90;99.90;;;;;;5061959;28;25179;-60
2021/09/29 00:08:06;;;;;;;9.38;5.53;;;13.90;99.90;;;;;;5057592;28;25076;-59
2021/09/29 00:10:32;;;;;;;12.65;6.63;;;13.90;99.90;;;;;;5060334;28;25068;-61
2021/09/29 00:12:57;;;;;;;14.15;7.22;;;13.90;99.90;;;;;;5058445;28;25086;-59
2021/09/29 00:15:23;;;;;;;10.52;6.30;;;13.80;99.90;;;;;;5055806;28;25104;-60
2021/09/29 00:17:48;;;;;;;19.90;7.03;;;13.80;99.90;;;;;;5062586;28;25092;-59
2021/09/29 00:20:15;;;;;;;11.65;6.05;;;13.80;99.90;;;;;;5059469;28;25082;-60
2021/09/29 00:22:42;;;;;;;10.98;6.13;;;13.80;99.90;;;;;;5069120;28;25063;-60
2021/09/29 00:25:10;;;;;;;14.88;6.78;;;13.90;99.90;;;;;;5058996;28;25067;-59
2021/09/29 00:27:36;;;;;;;17.35;6.63;;;13.90;99.90;;;;;;5064024;28;25136;-60
2021/09/29 00:30:07;;;;;;;11.00;6.72;;;13.90;99.90;;;;;;5056388;28;25176;-60
2021/09/29 00:32:34;;;;;;;16.08;7.40;;;13.90;99.90;;;;;;5056465;28;25111;-60
2021/09/29 00:35:00;;;;;;;15.32;6.82;;;13.90;99.90;;;;;;5057184;28;25066;-61
2021/09/29 00:37:26;;;;;;;11.38;6.28;;;13.80;99.90;;;;;;5064191;28;25068;-59
2021/09/29 00:39:51;;;;;;;11.43;6.13;;;13.70;99.90;;;;;;5060164;28;25134;-59
2021/09/29 00:42:17;;;;;;;15.00;7.60;;;13.70;99.90;;;;;;5066376;28;25134;-59
2021/09/29 00:44:43;;;;;;;11.20;6.32;;;13.60;99.90;;;;;;5063522;28;25066;-62
2021/09/29 00:47:08;;;;;;;12.25;6.93;;;13.60;99.90;;;;;;5041599;28;25060;-60
2021/09/29 00:49:34;;;;;;;17.83;6.68;;;13.50;99.90;;;;;;5068167;28;25106;-59
2021/09/29 00:52:01;;;;;;;9.85;6.88;;;13.50;99.90;;;;;;5062719;28;25117;-60
2021/09/29 00:54:29;;;;;;;11.15;6.18;;;13.50;99.90;;;;;;5064800;28;25050;-61
2021/09/29 00:56:55;;;;;;;12.18;6.88;;;13.50;99.90;;;;;;5066439;28;25084;-59
2021/09/29 00:59:21;;;;;;;14.60;7.45;;;13.50;99.90;;;;;;5066292;28;25139;-60
2021/09/29 01:01:47;;;;;;;10.32;7.35;;;13.50;99.90;;;;;;5065908;28;25069;-60
2021/09/29 01:04:14;;;;;;;11.88;6.82;;;13.50;99.90;;;;;;5065484;28;25125;-59
2021/09/29 01:06:56;;;;;;;12.45;6.63;;;13.50;99.90;;;;;;5065500;28;25076;-60
2021/09/29 01:09:34;;;;;;;17.17;6.97;;;13.40;99.90;;;;;;5058243;28;25115;-60
2021/09/29 01:12:09;;;;;;;13.07;7.25;;;13.50;99.90;;;;;;5066083;28;25060;-61
2021/09/29 01:14:42;;;;;;;13.00;6.35;;;13.50;99.90;;;;;;5060806;28;25082;-60
2021/09/29 01:17:10;;;;;;;10.25;6.68;;;13.50;99.90;;;;;;5059337;28;25146;-60
2021/09/29 01:20:01;;;;;;;9.20;6.10;;;13.50;99.90;;;;;;5052587;28;25061;-60
2021/09/29 01:22:41;;;;;;;10.60;6.40;;;13.50;99.90;;;;;;5060997;28;25063;-60
2021/09/29 01:25:17;;;;;;;15.93;6.93;;;13.50;99.90;;;;;;5063561;28;25163;-60
2021/09/29 01:27:44;;;;;;;10.73;6.82;;;13.50;99.90;;;;;;5062173;28;25092;-59
2021/09/29 01:30:10;;;;;;;11.27;6.82;;;13.50;99.90;;;;;;5048649;28;25083;-60
2021/09/29 01:32:38;;;;;;;9.65;6.50;;;13.50;99.90;;;;;;5061348;28;25079;-60
2021/09/29 01:35:05;;;;;;;10.43;6.95;;;13.40;99.90;;;;;;5058055;28;25061;-60
2021/09/29 01:37:31;;;;;;;14.88;6.65;;;13.40;99.90;;;;;;5040111;28;25100;-60
2021/09/29 01:39:56;;;;;;;12.77;6.75;;;13.40;99.90;;;;;;5054106;28;25105;-59
2021/09/29 01:42:23;;;;;;;11.00;6.40;;;13.50;99.90;;;;;;5039577;28;25104;-60
2021/09/29 01:44:48;;;;;;;14.88;7.60;;;13.50;99.90;;;;;;5056635;28;25067;-60
2021/09/29 01:47:14;;;;;;;10.45;6.80;;;13.50;99.90;;;;;;5046154;28;25070;-60
2021/09/29 01:49:49;;;;;;;17.52;6.63;;;13.50;99.90;;;;;;5065459;28;25063;-59
2021/09/29 01:52:21;;;;;;;14.00;6.38;;;13.50;99.90;;;;;;5059215;28;25052;-60
2021/09/29 01:54:48;;;;;;;11.70;6.55;;;13.50;99.90;;;;;;5059106;28;25198;-60
2021/09/29 01:57:15;;;;;;;15.52;7.00;;;13.50;99.90;;;;;;5059875;28;25172;-58
2021/09/29 01:59:43;;;;;;;14.32;6.35;;;13.50;99.90;;;;;;5045903;28;25050;-59
2021/09/29 02:02:09;;;;;;;12.65;7.22;;;13.50;99.90;;;;;;5060214;28;25094;-59
2021/09/29 02:04:35;;;;;;;12.10;6.13;;;13.50;99.90;;;;;;5060899;28;25065;-60
2021/09/29 02:07:00;;;;;;;13.35;7.28;;;13.50;99.90;;;;;;5052959;28;25061;-61
2021/09/29 02:09:27;;;;;;;10.85;6.22;;;13.50;99.90;;;;;;5062800;28;25074;-60
2021/09/29 02:11:55;;;;;;;13.27;5.63;;;13.50;99.90;;;;;;5064282;28;25061;-60
2021/09/29 02:14:22;;;;;;;8.85;5.47;;;13.50;99.90;;;;;;5061399;28;25053;-59
2021/09/29 02:16:50;;;;;;;11.07;6.40;;;13.50;99.90;;;;;;5058796;28;25075;-59
2021/09/29 02:19:16;;;;;;;11.23;5.63;;;13.60;99.90;;;;;;5060656;28;25112;-59
2021/09/29 02:21:42;;;;;;;13.30;6.03;;;13.60;99.90;;;;;;5063101;28;25140;-60
2021/09/29 02:24:08;;;;;;;10.60;5.95;;;13.60;99.90;;;;;;5057231;28;25064;-59
2021/09/29 02:26:35;;;;;;;12.38;5.32;;;13.50;99.90;;;;;;5064879;28;25062;-60
2021/09/29 02:29:02;;;;;;;9.55;5.85;;;13.60;99.90;;;;;;5060034;28;25130;-59
2021/09/29 02:31:28;;;;;;;10.00;5.80;;;13.60;99.90;;;;;;5066028;28;25066;-60
2021/09/29 02:33:54;;;;;;;11.02;5.68;;;13.60;99.90;;;;;;5067895;28;25056;-61
2021/09/29 02:36:20;;;;;;;13.73;5.15;;;13.60;99.90;;;;;;5062670;28;25079;-60
2021/09/29 02:38:45;;;;;;;10.05;5.57;;;13.60;99.90;;;;;;5066932;28;25107;-60
2021/09/29 02:41:12;;;;;;;13.07;5.93;;;13.60;99.90;;;;;;5065292;28;25110;-60
2021/09/29 02:43:38;;;;;;;9.88;5.18;;;13.60;99.90;;;;;;5067999;28;25070;-59
2021/09/29 02:46:04;;;;;;;12.38;5.80;;;13.60;99.90;;;;;;5065987;28;25073;-60
2021/09/29 02:48:29;;;;;;;8.35;5.18;;;13.60;99.90;;;;;;5063848;28;25127;-61
2021/09/29 02:50:55;;;;;;;11.85;5.75;;;13.60;99.90;;;;;;5053601;28;25149;-59
2021/09/29 02:53:21;;;;;;;15.05;5.90;;;13.60;99.90;;;;;;5066250;28;25058;-60
2021/09/29 02:55:46;;;;;;;15.55;5.35;;;13.50;99.90;;;;;;5075050;28;25099;-60
2021/09/29 02:58:12;;;;;;;10.73;5.35;;;13.60;99.90;;;;;;5081841;28;25055;-59
2021/09/29 03:00:38;;;;;;;9.40;5.57;;;13.50;99.90;;;;;;5068543;28;25087;-60
2021/09/29 03:03:03;;;;;;;10.65;5.32;;;13.60;99.90;;;;;;5064077;28;25077;-61
2021/09/29 03:05:29;;;;;;;9.95;5.35;;;13.70;99.90;;;;;;5063576;28;25158;-59
2021/09/29 03:07:54;;;;;;;11.77;6.28;;;13.60;99.90;;;;;;5067456;28;25131;-59
2021/09/29 03:10:20;;;;;;;9.65;5.30;;;13.60;99.90;;;;;;5068600;28;25068;-59
2021/09/29 03:12:46;;;;;;;12.27;6.13;;;13.60;99.90;;;;;;5067080;28;25068;-60
2021/09/29 03:15:14;;;;;;;7.75;5.13;;;13.50;99.90;;;;;;5060726;28;25153;-60
2021/09/29 03:17:40;;;;;;;10.38;5.57;;;13.50;99.90;;;;;;5066564;28;25048;-60
2021/09/29 03:20:06;;;;;;;9.35;5.90;;;13.50;99.90;;;;;;5066130;28;25092;-59
2021/09/29 03:22:32;;;;;;;10.77;6.13;;;13.40;99.90;;;;;;5060344;28;25091;-59
2021/09/29 03:24:58;;;;;;;12.45;5.75;;;13.40;99.90;;;;;;5067874;28;25063;-62
2021/09/29 03:27:24;;;;;;;9.52;6.03;;;13.40;99.90;;;;;;5071750;28;25075;-60
2021/09/29 03:29:49;;;;;;;8.13;5.15;;;13.40;99.90;;;;;;5077075;28;25103;-60
2021/09/29 03:32:16;;;;;;;9.55;5.30;;;13.40;99.90;;;;;;5064036;28;25070;-60
2021/09/29 03:34:41;;;;;;;9.38;4.75;;;13.40;99.90;;;;;;5066957;28;25083;-60
2021/09/29 03:37:07;;;;;;;11.18;5.43;;;13.40;99.90;;;;;;5067137;28;25064;-60
2021/09/29 03:39:33;;;;;;;12.93;5.93;;;13.40;99.90;;;;;;5056319;28;25079;-60
2021/09/29 03:41:58;;;;;;;12.43;6.15;;;13.40;99.90;;;;;;5065890;28;25362;-61
2021/09/29 03:44:24;;;;;;;13.30;5.93;;;13.40;99.90;;;;;;5057544;28;25073;-60
2021/09/29 03:46:49;;;;;;;13.88;5.60;;;13.40;99.90;;;;;;5059257;28;25083;-61
2021/09/29 03:49:15;;;;;;;10.80;5.20;;;13.30;99.90;;;;;;5062139;28;25073;-62
2021/09/29 03:51:40;;;;;;;9.85;5.65;;;13.40;99.90;;;;;;5064511;28;25078;-61
2021/09/29 03:54:06;;;;;;;15.32;6.60;;;13.30;99.90;;;;;;5064280;28;25107;-61
2021/09/29 03:56:31;;;;;;;12.73;5.97;;;13.30;99.90;;;;;;5059875;28;25070;-60
2021/09/29 03:58:57;;;;;;;11.80;5.93;;;13.30;99.90;;;;;;5067731;28;25060;-61
2021/09/29 04:01:23;;;;;;;11.20;5.55;;;13.30;99.90;;;;;;5064711;28;25067;-59
2021/09/29 04:03:48;;;;;;;15.70;6.57;;;13.20;99.90;;;;;;5061201;28;25070;-61
2021/09/29 04:06:14;;;;;;;10.05;5.25;;;13.20;99.90;;;;;;5066271;28;25064;-60
2021/09/29 04:08:40;;;;;;;11.35;5.07;;;13.10;99.90;;;;;;5065494;28;25095;-60
2021/09/29 04:11:08;;;;;;;11.75;5.40;;;13.10;99.90;;;;;;5066814;28;25094;-60
2021/09/29 04:13:34;;;;;;;11.00;4.72;;;13.20;99.90;;;;;;5058024;28;25123;-59
2021/09/29 04:16:00;;;;;;;10.00;5.50;;;13.20;99.90;;;;;;5064565;28;25163;-59
2021/09/29 04:18:25;;;;;;;13.57;6.50;;;13.20;99.90;;;;;;5060798;28;25076;-60
2021/09/29 04:20:51;;;;;;;11.60;5.75;;;13.30;99.90;;;;;;5060258;28;25075;-61
2021/09/29 04:23:17;;;;;;;12.48;5.40;;;13.20;99.90;;;;;;5053560;28;25189;-59
2021/09/29 04:25:43;;;;;;;11.90;5.28;;;13.10;99.90;;;;;;5053598;28;25096;-61
2021/09/29 04:28:08;;;;;;;13.52;5.57;;;13.10;99.90;;;;;;5062097;28;24716;-61
2021/09/29 04:30:34;;;;;;;11.23;4.93;;;13.10;99.90;;;;;;5061225;28;25066;-61
2021/09/29 04:33:00;;;;;;;12.05;6.07;;;13.10;99.90;;;;;;5062561;28;25078;-58
2021/09/29 04:35:26;;;;;;;13.20;5.35;;;13.10;99.90;;;;;;5084149;22;25073;-66
2021/09/29 04:37:53;;;;;;;9.57;4.82;;;13.10;99.90;;;;;;5044388;28;25063;-66
2021/09/29 04:40:18;;;;;;;11.82;5.18;;;13.10;99.90;;;;;;5062010;28;25135;-66
2021/09/29 04:42:44;;;;;;;8.35;5.00;;;13.10;99.90;;;;;;5064028;28;25071;-66
2021/09/29 04:45:10;;;;;;;11.05;5.53;;;13.10;99.90;;;;;;5058622;28;25148;-67
2021/09/29 04:47:35;;;;;;;10.85;5.13;;;13.10;99.90;;;;;;5037386;28;25168;-67
2021/09/29 04:50:01;;;;;;;11.00;5.25;;;13.10;99.90;;;;;;5047869;28;25131;-66
2021/09/29 04:52:27;;;;;;;13.45;5.35;;;13.10;99.90;;;;;;5035783;28;25093;-66
2021/09/29 04:54:53;;;;;;;10.20;4.72;;;13.10;99.90;;;;;;5048039;28;25123;-66
2021/09/29 04:57:19;;;;;;;9.07;4.97;;;13.10;99.90;;;;;;5048653;28;25140;-65
2021/09/29 04:59:45;;;;;;;15.10;4.70;;;13.10;99.90;;;;;;5048104;28;25077;-66
2021/09/29 05:02:11;;;;;;;12.80;5.10;;;13.20;99.90;;;;;;5046316;28;25145;-69
2021/09/29 05:04:37;;;;;;;15.55;4.72;;;13.10;99.90;;;;;;5045732;28;25135;-64
2021/09/29 05:07:04;;;;;;;13.43;4.43;;;13.10;99.90;;;;;;5034226;28;25132;-68
2021/09/29 05:09:31;;;;;;;8.40;3.95;;;13.10;99.90;;;;;;5050715;28;25072;-67
2021/09/29 05:12:23;;;;;;;9.73;3.78;;;13.10;99.90;;;;;;5049802;28;25100;-66
2021/09/29 05:14:49;;;;;;;12.05;4.50;;;13.10;99.90;;;;;;5046463;28;25100;-67
2021/09/29 05:17:14;;;;;;;9.82;4.18;;;13.20;99.90;;;;;;5043368;28;25133;-66
2021/09/29 05:19:40;;;;;;;10.18;3.58;;;13.20;99.90;;;;;;5027578;28;25128;-66
2021/09/29 05:22:07;;;;;;;9.82;4.07;;;13.30;99.90;;;;;;5045138;28;25077;-66
2021/09/29 05:24:32;;;;;;;10.90;4.50;;;13.20;99.90;;;;;;5039070;28;25123;-66
2021/09/29 05:26:58;;;;;;;15.43;4.25;;;13.30;99.90;;;;;;5046744;28;25073;-67
2021/09/29 05:29:25;;;;;;;8.82;3.67;;;13.20;99.90;;;;;;5045491;28;25075;-66
2021/09/29 05:31:50;;;;;;;7.80;3.80;;;13.30;99.90;;;;;;5039541;28;25052;-66
2021/09/29 05:34:16;;;;;;;12.90;4.05;;;13.30;99.90;;;;;;5048530;28;25102;-66
2021/09/29 05:36:45;;;;;;;11.02;4.00;;;13.30;99.90;;;;;;5046851;28;25106;-66
2021/09/29 05:39:11;;;;;;;9.35;3.50;;;13.30;99.90;;;;;;5038387;28;25133;-67
2021/09/29 05:41:36;;;;;;;7.55;3.65;;;13.30;99.90;;;;;;5041012;28;25063;-67
2021/09/29 05:44:02;;;;;;;8.77;3.78;;;13.20;99.90;;;;;;5046349;28;25080;-66
2021/09/29 05:46:29;;;;;;;9.43;3.33;;;13.20;99.90;;;;;;5043876;28;25067;-68
2021/09/29 05:48:55;;;;;;;9.98;3.70;;;13.30;99.90;;;;;;5037584;28;25064;-68
2021/09/29 05:51:21;;;;;;;6.07;3.22;;;13.30;99.90;;;;;;5045740;28;25144;-66
2021/09/29 05:53:46;;;;;;;7.90;4.03;;;13.30;99.90;;;;;;5044311;28;25063;-67
2021/09/29 05:56:13;;;;;;;8.85;3.40;;;13.30;99.90;;;;;;5049016;28;25079;-67
2021/09/29 05:58:40;;;;;;;9.98;3.67;;;13.30;99.90;;;;;;5044596;28;25105;-67
2021/09/29 06:01:06;;;;;;;13.75;3.92;;;13.30;99.90;;;;;;5025401;28;25091;-70
2021/09/29 06:03:32;;;;;;;10.65;3.60;;;13.40;99.90;;;;;;5030322;28;25089;-67
2021/09/29 06:05:58;;;;;;;10.15;4.07;;;13.50;99.90;;;;;;5045563;28;25107;-67
2021/09/29 06:08:23;;;;;;;12.20;3.40;;;13.40;99.90;;;;;;5047768;28;25133;-66
2021/09/29 06:10:49;;;;;;;9.65;3.50;;;13.40;99.90;;;;;;5050082;28;25054;-66
2021/09/29 06:13:15;;;;;;;9.95;3.40;;;13.40;99.90;;;;;;5046351;28;25057;-66
2021/09/29 06:15:42;;;;;;;7.93;2.95;;;13.40;99.90;;;;;;5051117;28;25066;-66
2021/09/29 06:18:13;;;;;;;12.25;4.10;;;13.30;99.90;;;;;;5053384;28;25081;-66
2021/09/29 06:20:42;;;;;;;6.82;3.53;;;13.30;99.90;;;;;;5049909;28;25042;-67
2021/09/29 06:23:08;;;;;;;8.75;3.20;;;13.30;99.90;;;;;;5059660;28;25083;-67
2021/09/29 06:25:34;;;;;;;6.00;3.67;;;13.20;99.90;;;;;;5067943;28;25082;-67
2021/09/29 06:27:59;;;;;;;8.45;3.45;;;13.20;99.90;;;;;;5050119;28;25093;-67
2021/09/29 06:30:25;;;;;;;9.98;3.38;;;13.20;99.90;;;;;;5046449;28;25146;-67
2021/09/29 06:32:50;;;;;;;11.23;3.70;;;13.10;99.90;;;;;;5016644;28;25063;-66
2021/09/29 06:35:16;;;;;;;10.65;3.70;;;13.10;99.90;;;;;;5037992;28;25117;-67
2021/09/29 06:37:42;;;;;;;14.07;4.05;;;13.10;99.90;;;;;;5052497;28;25068;-66
2021/09/29 06:40:14;;;;;;;12.00;3.83;;;13.10;99.90;;;;;;5057992;28;25092;-67
2021/09/29 06:42:41;;;;;;;9.10;3.73;;;13.10;99.90;;;;;;5028868;28;25080;-68
2021/09/29 06:45:09;;;;;;;7.57;3.67;;;13.10;99.90;;;;;;5049256;28;25078;-68
2021/09/29 06:47:34;;;;;;;12.57;4.18;;;13.10;99.90;;;;;;5044938;28;25100;-67
2021/09/29 06:50:02;;;;;;;10.85;4.47;;;13.10;99.90;;;;;;5058701;28;25136;-67
2021/09/29 06:52:27;;;;;;;7.07;3.75;;;13.10;99.90;;;;;;5025947;28;25118;-66
2021/09/29 06:54:53;;;;;;;9.82;4.68;;;13.10;99.90;;;;;;5043787;28;25152;-66
2021/09/29 06:57:19;;;;;;;10.65;5.43;;;13.00;99.90;;;;;;5026836;28;25058;-66
2021/09/29 06:59:44;;;;;;;12.18;5.70;;;13.00;99.90;;;;;;5038870;28;25067;-66
2021/09/29 07:02:10;;;;;;;8.10;5.30;;;12.90;99.90;;;;;;5046055;28;25086;-67
2021/09/29 07:04:35;;;;;;;9.65;6.18;;;13.00;99.90;;;;;;5040518;28;25059;-67
2021/09/29 07:07:01;;;;;;;11.77;6.90;;;13.00;99.90;;;;;;5039526;28;25148;-67
2021/09/29 07:09:26;;;;;;;12.45;6.72;;;13.10;99.90;;;;;;5050123;28;25063;-66
2021/09/29 07:11:52;;;;;;;11.52;7.35;;;13.10;99.90;;;;;;5047196;28;25086;-67
2021/09/29 07:14:19;;;;;;;13.27;7.88;;;13.10;99.90;;;;;;5049355;28;25133;-68
2021/09/29 07:16:44;;;;;;;8.05;6.45;;;13.10;99.90;;;;;;5048282;28;25113;-67
2021/09/29 07:19:10;;;;;;;9.35;7.10;;;13.10;99.90;;;;;;5042739;28;25071;-66
2021/09/29 07:21:36;;;;;;;12.52;7.50;;;13.10;99.90;;;;;;5048842;28;25107;-66
2021/09/29 07:24:02;;;;;;;13.88;7.30;;;13.00;99.90;;;;;;5047739;28;25074;-67
2021/09/29 07:26:27;;;;;;;9.50;7.18;;;13.10;99.90;;;;;;5041163;28;25066;-68
2021/09/29 07:28:53;;;;;;;8.43;5.82;;;13.10;99.90;;;;;;5047721;28;25077;-66
2021/09/29 07:31:19;;;;;;;12.88;6.68;;;13.10;99.90;;;;;;5050896;28;25060;-65
2021/09/29 07:33:44;;;;;;;13.00;6.82;;;13.10;99.90;;;;;;5055380;28;25079;-67
2021/09/29 07:36:11;;;;;;;12.05;6.47;;;13.20;99.90;;;;;;5056388;28;25065;-69
2021/09/29 07:38:37;;;;;;;15.60;6.40;;;13.10;99.90;;;;;;5039920;28;25100;-67
2021/09/29 07:41:02;;;;;;;14.05;6.20;;;13.10;99.90;;;;;;5039171;28;25105;-66
2021/09/29 07:43:28;;;;;;;10.55;5.10;;;13.00;99.90;;;;;;5053617;28;25160;-67
2021/09/29 07:45:54;;;;;;;14.52;4.82;;;13.00;99.90;;;;;;5040414;28;25082;-66
2021/09/29 07:48:19;;;;;;;10.80;4.90;;;13.00;99.90;;;;;;5043791;28;25071;-67
2021/09/29 07:50:45;;;;;;;9.30;3.80;;;12.90;99.90;;;;;;5037204;28;25119;-68
2021/09/29 07:53:13;;;;;;;11.52;5.40;;;12.90;99.90;;;;;;5045997;28;25073;-66
2021/09/29 07:55:40;;;;;;;7.15;3.60;;;12.90;99.90;;;;;;5050780;28;25070;-67
2021/09/29 07:58:05;;;;;;;6.93;3.13;;;12.80;99.90;;;;;;5047062;28;25055;-68
2021/09/29 08:00:31;;;;;;;11.55;3.28;;;12.80;99.90;;;;;;5048778;28;25069;-67
2021/09/29 08:02:56;;;;;;;4.55;2.70;;;12.80;99.90;;;;;;5039807;28;25130;-64
2021/09/29 08:05:22;;;;;;;6.70;2.45;;;12.80;99.90;;;;;;5046441;28;25140;-65
2021/09/29 08:07:50;;;;;;;8.13;3.38;;;12.70;99.90;;;;;;5047354;28;25090;-66
2021/09/29 08:10:16;;;;;;;3.97;2.33;;;12.60;99.90;;;;;;5048778;28;25167;-66
2021/09/29 08:12:42;;;;;;;9.10;2.83;;;12.70;99.90;;;;;;5037618;28;25110;-66
2021/09/29 08:15:15;;;;;;;6.40;2.42;;;12.70;99.90;;;;;;5047422;28;25110;-66
2021/09/29 08:17:42;;;;;;;8.43;2.60;;;12.60;99.90;;;;;;5035201;28;25097;-67
2021/09/29 08:20:14;;;;;;;3.72;2.22;;;12.60;99.90;;;;;;5044488;28;25153;-65
2021/09/29 08:22:40;;;;;;;4.57;2.33;;;12.60;99.90;;;;;;5035134;28;25062;-67
2021/09/29 08:25:35;;;;;;;6.47;2.13;;;12.50;99.90;;;;;;5037421;28;25138;-66
2021/09/29 08:38:38;;;;;;;6.57;1.77;;;12.50;99.90;;;;;;5042851;28;25104;-66
2021/09/29 08:41:38;;;;;;;5.22;2.17;;;12.50;99.90;;;;;;5044744;28;25076;-67
2021/09/29 08:44:09;;;;;;;7.80;2.55;;;12.50;99.90;;;;;;5044421;28;25150;-67
2021/09/29 08:51:51;;;;;;;7.90;2.20;;;12.40;99.90;;;;;;5045179;28;25076;-66
2021/09/29 09:16:33;;;;;;;5.53;2.08;;;12.30;99.90;;;;;;5031117;28;25079;-66
2021/09/29 09:19:05;;;;;;;2.80;1.83;;;12.40;99.90;;;;;;5039166;28;25081;-67
2021/09/29 09:21:33;;;;;;;6.18;1.90;;;12.40;99.90;;;;;;5026680;28;25044;-66
2021/09/29 09:23:59;;;;;;;4.72;2.03;;;12.40;99.90;;;;;;5045291;28;25098;-66
2021/09/29 09:26:26;;;;;;;5.55;1.73;;;12.30;99.90;;;;;;5046108;28;25104;-66
2021/09/29 09:29:05;;;;;;;7.05;2.08;;;12.30;99.90;;;;;;5033383;28;25136;-66
2021/09/29 09:31:31;;;;;;;13.95;1.73;;;12.20;99.90;;;;;;5040622;28;25077;-66
2021/09/29 09:34:01;;;;;;;1.67;1.33;;;12.10;99.90;;;;;;5026229;28;25097;-64
2021/09/29 09:36:27;;;;;;;5.45;1.40;;;12.00;99.90;;;;;;5047296;28;25075;-66
2021/09/29 09:38:53;;;;;;;4.22;1.35;;;11.90;99.90;;;;;;5047908;28;25060;-65
2021/09/29 09:41:19;;;;;;;5.28;1.35;;;11.80;99.90;;;;;;5049537;28;25161;-66
2021/09/29 09:43:53;;;;;;;5.18;1.58;;;11.70;99.90;;;;;;5048669;28;25121;-66
2021/09/29 09:46:21;;;;;;;3.38;1.23;;;11.60;99.90;;;;;;5049765;28;25057;-68
2021/09/29 09:49:08;;;;;;;5.57;1.10;;;11.50;99.90;;;;;;5048308;28;25169;-65
2021/09/29 09:51:46;;;;;;;1.52;1.05;;;11.60;99.90;;;;;;5043855;28;25062;-66
2021/09/29 09:54:11;;;;;;;5.20;1.05;;;11.60;99.90;;;;;;5034916;28;25108;-67
2021/09/29 09:56:41;;;;;;;3.15;1.10;;;11.80;99.90;;;;;;5051337;28;25098;-67
2021/09/29 09:59:07;;;;;;;5.22;1.20;;;11.90;99.90;;;;;;5040662;28;25065;-68
2021/09/29 10:01:34;;;;;;;2.55;1.05;;;12.00;99.90;;;;;;5036669;28;25071;-67
2021/09/29 10:04:14;;;;;;;5.00;1.50;;;11.90;99.90;;;;;;5041366;28;25057;-67
2021/09/29 10:06:40;;;;;;;5.30;1.83;;;11.80;99.90;;;;;;5040700;28;25131;-68
2021/09/29 10:12:02;;;;;;;5.00;1.30;;;11.90;99.90;;;;;;5047045;28;25147;-68
2021/09/29 10:14:56;;;;;;;4.15;1.83;;;11.90;99.90;;;;;;5042514;28;25093;-67
2021/09/29 10:23:13;;;;;;;7.18;2.20;;;12.30;99.90;;;;;;5041440;28;25194;-68
2021/09/29 10:26:08;;;;;;;10.30;2.38;;;12.50;99.90;;;;;;5042237;28;25096;-67
2021/09/29 10:28:43;;;;;;;2.97;1.70;;;12.60;99.90;;;;;;5042602;28;25058;-67
2021/09/29 10:31:23;;;;;;;5.78;1.95;;;12.70;99.90;;;;;;5044659;28;25105;-66
2021/09/29 10:34:12;;;;;;;10.63;3.28;;;12.90;99.90;;;;;;5036265;28;25054;-66
2021/09/29 10:37:11;;;;;;;9.25;2.35;;;13.00;99.90;;;;;;5074743;22;25131;-59
2021/09/29 10:42:38;;;;;;;12.63;2.40;;;13.20;99.90;;;;;;5066977;28;25148;-59
2021/09/29 11:02:54;;;;;;;8.93;2.08;;;13.40;99.90;;;;;;5059269;28;25062;-59
2021/09/29 11:30:02;;;;;;;6.85;1.50;;;14.20;99.90;;;;;;5059555;28;25084;-59
2021/09/29 11:32:37;;;;;;;10.15;1.83;;;14.00;99.90;;;;;;5066118;28;25143;-59
2021/09/29 11:38:18;;;;;;;5.35;1.15;;;14.40;99.90;;;;;;5073460;28;25079;-60
2021/09/29 12:11:26;;;;;;;6.25;1.27;;;14.90;99.90;;;;;;5065081;28;25128;-60
2021/09/29 12:16:36;;;;;;;5.13;1.30;;;15.30;99.90;;;;;;5060777;28;25066;-61
2021/09/29 12:19:03;;;;;;;6.85;1.10;;;15.60;99.90;;;;;;5064753;28;25129;-60
2021/09/29 12:22:04;;;;;;;8.85;1.10;;;16.00;99.90;;;;;;5055486;28;25075;-59
2021/09/29 12:24:46;;;;;;;12.00;1.35;;;16.00;99.90;;;;;;5061052;28;25074;-59
2021/09/29 12:27:31;;;;;;;10.00;1.63;;;16.30;99.90;;;;;;5060468;28;25151;-61
2021/09/29 12:29:57;;;;;;;12.32;2.38;;;16.50;99.90;;;;;;5061019;28;25114;-60
2021/09/29 12:37:38;;;;;;;4.45;1.17;;;16.40;99.90;;;;;;5070794;28;25077;-61
2021/09/29 12:40:05;;;;;;;8.07;1.30;;;15.80;99.90;;;;;;5061879;28;25055;-60
2021/09/29 12:42:35;;;;;;;2.28;0.95;;;15.60;99.90;;;;;;5065990;28;25068;-60
2021/09/29 12:45:01;;;;;;;5.20;1.10;;;15.70;99.90;;;;;;5063346;28;25080;-60
2021/09/29 12:49:58;;;;;;;9.50;1.70;;;15.90;99.90;;;;;;5065304;28;25077;-62
2021/09/29 12:52:32;;;;;;;4.60;1.17;;;15.80;99.90;;;;;;5063573;28;25066;-59
2021/09/29 12:54:59;;;;;;;6.45;1.30;;;15.50;99.90;;;;;;5064544;28;25067;-60
2021/09/29 12:57:27;;;;;;;5.90;1.40;;;15.30;99.90;;;;;;5065794;28;25144;-61
2021/09/29 12:59:54;;;;;;;4.43;1.25;;;15.20;99.90;;;;;;5060221;28;25093;-62
2021/09/29 13:02:19;;;;;;;8.63;1.27;;;15.50;99.90;;;;;;5060170;28;25078;-60
2021/09/29 13:04:45;;;;;;;5.82;0.80;;;15.80;99.90;;;;;;5066753;28;25083;-62
2021/09/29 13:07:10;;;;;;;5.70;1.15;;;16.00;99.90;;;;;;5068879;28;25059;-59
2021/09/29 13:09:36;;;;;;;5.28;1.10;;;16.20;99.90;;;;;;5068453;28;25080;-60
2021/09/29 13:12:02;;;;;;;8.68;1.17;;;15.70;99.90;;;;;;5056716;28;25065;-60
2021/09/29 13:14:27;;;;;;;5.15;1.17;;;15.60;99.90;;;;;;5064019;28;25082;-60
2021/09/29 13:16:53;;;;;;;6.18;1.00;;;15.70;99.90;;;;;;5064770;28;25069;-60
2021/09/29 13:19:27;;;;;;;5.35;1.00;;;15.70;99.90;;;;;;5059455;28;25059;-60
2021/09/29 13:21:56;;;;;;;3.10;0.70;;;15.70;99.90;;;;;;5057309;28;25086;-60
2021/09/29 13:27:02;;;;;;;5.50;1.13;;;15.80;99.90;;;;;;5064374;28;25073;-59
2021/09/29 13:35:16;;;;;;;5.63;0.82;;;15.00;99.90;;;;;;5055035;28;25151;-61
2021/09/29 13:37:42;;;;;;;5.78;0.80;;;14.70;99.90;;;;;;5061436;28;25052;-60
2021/09/29 13:40:08;;;;;;;4.07;1.23;;;14.60;99.90;;;;;;5065844;28;25103;-60
2021/09/29 13:42:34;;;;;;;6.88;1.25;;;14.60;99.90;;;;;;5057508;28;25059;-61
2021/09/29 13:44:59;;;;;;;4.28;1.38;;;14.60;99.90;;;;;;5060734;28;25080;-59
2021/09/29 13:47:25;;;;;;;7.60;1.52;;;14.30;99.90;;;;;;5059743;28;25086;-60
2021/09/29 13:49:51;;;;;;;6.13;1.63;;;14.20;99.90;;;;;;5056513;28;25097;-61
2021/09/29 13:52:22;;;;;;;3.88;1.10;;;14.40;99.90;;;;;;5063470;28;25084;-61
2021/09/29 13:54:50;;;;;;;2.35;1.08;;;14.70;99.90;;;;;;5064541;28;25127;-61
2021/09/29 13:57:23;;;;;;;5.57;1.50;;;14.60;99.90;;;;;;5070691;28;25067;-60
2021/09/29 14:29:45;;;;;;;8.90;1.10;;;13.00;99.90;;;;;;5061000;28;25088;-60
2021/09/29 14:32:20;;;;;;;3.58;0.77;;;12.80;99.90;;;;;;5056794;28;25064;-60
2021/09/29 14:34:47;;;;;;;7.22;1.10;;;12.80;99.90;;;;;;5068179;28;25161;-60
2021/09/29 14:37:14;;;;;;;5.35;1.60;;;12.90;99.90;;;;;;5065151;28;25066;-61
2021/09/29 14:39:40;;;;;;;11.38;1.35;;;12.80;99.90;;;;;;5060096;28;25155;-59
2021/09/29 14:42:07;;;;;;;2.47;1.02;;;12.70;99.90;;;;;;5059982;28;25122;-60
2021/09/29 14:44:33;;;;;;;6.82;1.30;;;12.80;99.90;;;;;;5067350;28;25063;-59
2021/09/29 14:46:59;;;;;;;11.35;1.85;;;13.00;99.90;;;;;;5063661;28;25169;-59
2021/09/29 14:49:25;;;;;;;2.58;1.00;;;13.10;99.90;;;;;;5060739;28;25184;-59
2021/09/29 14:51:50;;;;;;;5.47;1.02;;;13.20;99.90;;;;;;5066077;28;25054;-60
2021/09/29 14:54:17;;;;;;;5.70;1.33;;;13.50;99.90;;;;;;5061948;28;25083;-59
2021/09/29 14:56:43;;;;;;;5.30;1.33;;;13.60;99.90;;;;;;5074920;28;25079;-60
2021/09/29 14:59:09;;;;;;;6.13;1.23;;;13.70;99.90;;;;;;5069108;28;25074;-59
2021/09/29 15:01:34;;;;;;;8.23;1.42;;;13.80;99.90;;;;;;5067854;28;25060;-61
2021/09/29 15:04:00;;;;;;;5.25;1.38;;;13.90;99.90;;;;;;5066300;28;25072;-61
2021/09/29 15:06:26;;;;;;;5.18;1.83;;;14.00;99.90;;;;;;5065062;28;25107;-60
2021/09/29 15:08:51;;;;;;;6.38;1.50;;;14.00;99.90;;;;;;5065191;28;25120;-61
2021/09/29 15:11:17;;;;;;;6.65;1.92;;;14.30;99.90;;;;;;5062502;28;25059;-61
2021/09/29 15:13:55;;;;;;;10.20;2.80;;;14.40;99.90;;;;;;5069165;28;25063;-62
2021/09/29 15:16:29;;;;;;;4.75;1.27;;;14.50;99.90;;;;;;5063694;28;25061;-60
2021/09/29 15:22:07;;;;;;;7.68;1.48;;;14.40;99.90;;;;;;5057127;28;25060;-60
2021/09/29 15:48:23;;;;;;;9.30;1.50;;;12.90;99.90;;;;;;5066225;28;25061;-59
2021/09/29 15:51:08;;;;;;;5.40;1.40;;;13.00;99.90;;;;;;5065413;28;25083;-58
2021/09/29 15:53:53;;;;;;;6.18;1.48;;;12.90;99.90;;;;;;5066886;28;25047;-60
2021/09/29 15:56:37;;;;;;;7.85;1.20;;;13.00;99.90;;;;;;5053519;28;25062;-60
2021/09/29 16:01:42;;;;;;;4.70;1.50;;;13.00;99.90;;;;;;5062808;28;25096;-60
2021/09/29 16:04:23;;;;;;;3.50;0.90;;;13.00;99.90;;;;;;5057969;28;25077;-61
2021/09/29 16:06:58;;;;;;;3.90;1.30;;;13.10;99.90;;;;;;5065055;28;25046;-60
2021/09/29 16:12:13;;;;;;;3.65;1.00;;;13.20;99.90;;;;;;5069628;28;25103;-59
2021/09/29 16:17:54;;;;;;;8.30;1.10;;;13.30;99.90;;;;;;5036991;28;25074;-60